ARA Libertad — LOLD — position and weather

sailwx.info

Track history (hours):
 
Tides and Currents Weather Stations Pressure Air Temp Water Temp Dewpoint Dewpoint Depression Visibility Wind Speed Wind Dir Waves Ship Positions

ARA Libertad (Argentina)

Last reported at 2017-Jun-25 21:04 UTC. Time now 2017-Jun-26 11:57 UTC.
Position N 53°35' E 005°31'.

Length 104 m; draft 6.7 m.

Type: Other ship. MMSI: 701000001.

Date/timePositionNaut miles runAvg speedWind from/ knotsBaromVisibWave heightAir tempDewpointWater temp
2017-Jun-25 21:04N 53°35' E 005°31'1 9.4
2017-Jun-25 20:59N 53°34' E 005°30'4 9.0
2017-Jun-25 20:30N 53°33' E 005°23'5 9.1
2017-Jun-25 20:00N 53°31' E 005°16'5 9.2
2017-Jun-25 19:30N 53°30' E 005°09'5 9.2
2017-Jun-25 19:00N 53°28' E 005°02'5 9.6
2017-Jun-25 18:30N 53°26' E 004°54'5 9.9
2017-Jun-25 18:00N 53°24' E 004°47'611.5
2017-Jun-25 17:26N 53°19' E 004°40'2411.7
2017-Jun-25 15:25N 52°56' E 004°28'3 7.9
2017-Jun-25 15:00N 52°54' E 004°32'6 5.8
2017-Jun-25 14:00N 52°56' E 004°41'3 5.9
2017-Jun-25 13:30N 52°58' E 004°45'3 5.1
2017-Jun-25 13:00N 52°60' E 004°48'1 2.2
2017-Jun-25 12:30N 52°59' E 004°48'1 2.3
2017-Jun-25 11:58N 52°58' E 004°47'0 0.4
2017-Jun-25 11:25N 52°57' E 004°47'0 0.0
2017-Jun-25 10:55N 52°57' E 004°47'0 0.0
2017-Jun-25 10:28N 52°57' E 004°47'0 0.0
2017-Jun-25 09:58N 52°57' E 004°47'0 0.0
2017-Jun-25 09:28N 52°57' E 004°47'0 0.0
2017-Jun-25 08:58N 52°57' E 004°47'0 0.0
2017-Jun-25 08:28N 52°57' E 004°47'0 0.0
2017-Jun-25 07:55N 52°57' E 004°47'0 0.0
2017-Jun-25 07:28N 52°57' E 004°47'0 0.0
2017-Jun-25 06:58N 52°57' E 004°47'0 0.0
2017-Jun-25 06:19N 52°57' E 004°47'0 0.0
2017-Jun-25 05:58N 52°57' E 004°47'0 0.0
2017-Jun-25 05:28N 52°57' E 004°47'0 0.0
2017-Jun-25 04:55N 52°57' E 004°47'0 0.0
2017-Jun-25 04:28N 52°57' E 004°47'0 0.0
2017-Jun-25 03:55N 52°57' E 004°47'0 0.0
2017-Jun-25 03:22N 52°57' E 004°47'0 0.0
2017-Jun-25 02:46N 52°57' E 004°47'0 0.0
2017-Jun-25 02:28N 52°57' E 004°47'0 0.0
2017-Jun-25 01:58N 52°57' E 004°47'0 0.0
2017-Jun-25 01:28N 52°57' E 004°47'0 0.0
2017-Jun-25 00:58N 52°57' E 004°47'0 0.0
2017-Jun-25 00:28N 52°57' E 004°47'0 0.0
2017-Jun-24 23:58N 52°57' E 004°47'0 0.0
2017-Jun-24 23:28N 52°57' E 004°47'0 0.0
2017-Jun-24 22:58N 52°57' E 004°47'0 0.0
2017-Jun-24 22:28N 52°57' E 004°47'0 0.0
2017-Jun-24 21:58N 52°57' E 004°47'0 0.0
2017-Jun-24 21:25N 52°57' E 004°47'0 0.0
2017-Jun-24 20:58N 52°57' E 004°47'0 0.0
2017-Jun-24 20:28N 52°57' E 004°47'0 0.0
2017-Jun-24 19:55N 52°57' E 004°47'0 0.0
2017-Jun-24 19:25N 52°57' E 004°47'0 0.0
2017-Jun-24 18:55N 52°57' E 004°47'0 0.0
2017-Jun-24 18:28N 52°57' E 004°47'0 0.0
2017-Jun-24 17:58N 52°57' E 004°47'0 0.0
2017-Jun-24 17:28N 52°57' E 004°47'0 0.0
2017-Jun-24 16:52N 52°57' E 004°47'0 0.0
2017-Jun-24 16:28N 52°57' E 004°47'0 0.0
2017-Jun-24 15:58N 52°57' E 004°47'0 0.0
2017-Jun-24 15:28N 52°57' E 004°47'0 0.0
2017-Jun-24 14:55N 52°57' E 004°47'0 0.0
2017-Jun-24 13:58N 52°57' E 004°47'0 0.0
2017-Jun-24 13:28N 52°57' E 004°47'0 0.0
2017-Jun-24 12:58N 52°57' E 004°47'0 0.0
2017-Jun-24 12:28N 52°57' E 004°47'0 0.0
2017-Jun-24 11:46N 52°57' E 004°47'0 0.0
2017-Jun-24 11:19N 52°57' E 004°47'0 0.0
2017-Jun-24 10:55N 52°57' E 004°47'0 0.0
2017-Jun-24 10:25N 52°57' E 004°47'0 0.0
2017-Jun-24 09:46N 52°57' E 004°47'0 0.0
2017-Jun-24 09:28N 52°57' E 004°47'0 0.0
2017-Jun-24 08:52N 52°57' E 004°47'0 0.0
2017-Jun-24 08:04N 52°57' E 004°47'0 0.0
2017-Jun-24 07:58N 52°57' E 004°47'0 0.0
2017-Jun-24 07:28N 52°57' E 004°47'0 0.0
2017-Jun-24 06:55N 52°57' E 004°47'0 0.0
2017-Jun-24 06:28N 52°57' E 004°47'0 0.0
2017-Jun-24 05:58N 52°57' E 004°47'0 0.0
2017-Jun-24 05:28N 52°57' E 004°47'0 0.0
2017-Jun-24 04:58N 52°57' E 004°47'0 0.0
2017-Jun-24 04:28N 52°57' E 004°47'0 0.0
2017-Jun-24 03:58N 52°57' E 004°47'0 0.0
2017-Jun-24 03:28N 52°57' E 004°47'0 0.0
2017-Jun-24 02:55N 52°57' E 004°47'0 0.0
2017-Jun-24 02:28N 52°57' E 004°47'0 0.0
2017-Jun-24 01:52N 52°57' E 004°47'0 0.0
2017-Jun-24 01:28N 52°57' E 004°47'0 0.0
2017-Jun-24 00:55N 52°57' E 004°47'0 0.0
2017-Jun-24 00:28N 52°57' E 004°47'0 0.0
2017-Jun-23 23:58N 52°57' E 004°47'0 0.0
2017-Jun-23 23:28N 52°57' E 004°47'0 0.0
2017-Jun-23 22:58N 52°57' E 004°47'0 0.0
2017-Jun-23 22:16N 52°57' E 004°47'0 0.0
2017-Jun-23 21:58N 52°57' E 004°47'0 0.0
2017-Jun-23 21:28N 52°57' E 004°47'0 0.0
2017-Jun-23 20:58N 52°57' E 004°47'0 0.0
2017-Jun-23 20:25N 52°57' E 004°47'0 0.0
2017-Jun-23 19:58N 52°57' E 004°47'0 0.0
2017-Jun-23 19:28N 52°57' E 004°47'0 0.0
2017-Jun-23 18:58N 52°57' E 004°47'0 0.0
2017-Jun-23 18:28N 52°57' E 004°47'0 0.0
2017-Jun-23 17:58N 52°57' E 004°47'0 0.0
2017-Jun-23 17:28N 52°57' E 004°47'0 0.0
2017-Jun-23 16:55N 52°57' E 004°47'0 0.0
2017-Jun-23 16:28N 52°57' E 004°47'0 0.0
2017-Jun-23 15:58N 52°57' E 004°47'0 0.0
2017-Jun-23 15:25N 52°57' E 004°47'0 0.0
2017-Jun-23 14:58N 52°57' E 004°47'0 0.0
2017-Jun-23 13:52N 52°57' E 004°47'0 0.0
2017-Jun-23 13:28N 52°57' E 004°47'0 0.0
2017-Jun-23 12:58N 52°57' E 004°47'0 0.0
2017-Jun-23 12:28N 52°57' E 004°47'0 0.0
2017-Jun-23 11:52N 52°57' E 004°47'0 0.0
2017-Jun-23 11:22N 52°57' E 004°47'0 0.0
2017-Jun-23 10:58N 52°57' E 004°47'0 0.0
2017-Jun-23 10:25N 52°57' E 004°47'0 0.0
2017-Jun-23 09:58N 52°57' E 004°47'0 0.0
2017-Jun-23 09:28N 52°57' E 004°47'0 0.0
2017-Jun-23 08:58N 52°57' E 004°47'0 0.0
2017-Jun-23 08:28N 52°57' E 004°47'0 0.0
2017-Jun-23 07:58N 52°57' E 004°47'0 0.0
2017-Jun-23 07:25N 52°57' E 004°47'0 0.0
2017-Jun-23 06:55N 52°57' E 004°47'0 0.0
2017-Jun-23 06:28N 52°57' E 004°47'0 0.0
2017-Jun-23 05:58N 52°57' E 004°47'0 0.0
2017-Jun-23 05:28N 52°57' E 004°47'0 0.0
2017-Jun-23 04:55N 52°57' E 004°47'0 0.0
2017-Jun-23 04:25N 52°57' E 004°47'0 0.0
2017-Jun-23 03:58N 52°57' E 004°47'0 0.0
2017-Jun-23 03:28N 52°57' E 004°47'0 0.0
2017-Jun-23 02:58N 52°57' E 004°47'0 0.0
2017-Jun-23 02:28N 52°57' E 004°47'0 0.0
2017-Jun-23 01:58N 52°57' E 004°47'0 0.0
2017-Jun-23 01:28N 52°57' E 004°47'0 0.0
2017-Jun-23 00:43N 52°57' E 004°47'0 0.0
2017-Jun-23 00:28N 52°57' E 004°47'0 0.0
2017-Jun-22 23:58N 52°57' E 004°47'0 0.0
2017-Jun-22 23:25N 52°57' E 004°47'0 0.0
2017-Jun-22 22:58N 52°57' E 004°47'0 0.0
2017-Jun-22 22:28N 52°57' E 004°47'0 0.0
2017-Jun-22 21:58N 52°57' E 004°47'0 0.0
2017-Jun-22 21:28N 52°57' E 004°47'0 0.0
2017-Jun-22 20:58N 52°57' E 004°47'0 0.0
2017-Jun-22 20:28N 52°57' E 004°47'0 0.0
2017-Jun-22 19:58N 52°57' E 004°47'0 0.0
2017-Jun-22 19:16N 52°57' E 004°47'0 0.0
2017-Jun-22 18:58N 52°57' E 004°47'0 0.0
2017-Jun-22 18:28N 52°57' E 004°47'0 0.0
2017-Jun-22 17:58N 52°57' E 004°47'0 0.0
2017-Jun-22 17:25N 52°57' E 004°47'0 0.0
2017-Jun-22 16:58N 52°57' E 004°47'0 0.0
2017-Jun-22 16:25N 52°57' E 004°47'0 0.0
2017-Jun-22 15:55N 52°57' E 004°47'0 0.0
2017-Jun-22 15:28N 52°57' E 004°47'0 0.0
2017-Jun-22 14:58N 52°57' E 004°47'0 0.0
2017-Jun-22 13:58N 52°57' E 004°47'0 0.0
2017-Jun-22 13:25N 52°57' E 004°47'0 0.4
2017-Jun-22 12:55N 52°58' E 004°47'2 3.9
2017-Jun-22 12:30N 52°59' E 004°48'4 7.8
2017-Jun-22 12:00N 53°02' E 004°52'0 0.3
2017-Jun-22 11:24N 53°02' E 004°52'0 0.1
2017-Jun-22 10:54N 53°02' E 004°52'0 0.0
2017-Jun-22 10:27N 53°02' E 004°52'0 0.1
2017-Jun-22 10:00N 53°02' E 004°52'0 0.1
2017-Jun-22 09:27N 53°02' E 004°52'0 0.0
2017-Jun-22 08:57N 53°02' E 004°52'0 0.0
2017-Jun-22 08:24N 53°02' E 004°52'0 0.1
2017-Jun-22 08:00N 53°02' E 004°52'0 0.1
2017-Jun-22 07:24N 53°02' E 004°52'0 0.0
2017-Jun-22 07:00N 53°02' E 004°52'3 5.2
2017-Jun-22 06:30N 53°00' E 004°49'3 5.6
2017-Jun-22 06:00N 52°58' E 004°47'0 0.0
2017-Jun-22 05:27N 52°58' E 004°47'0 0.0
2017-Jun-22 05:00N 52°58' E 004°47'0 0.0
2017-Jun-22 04:30N 52°58' E 004°47'0 0.0
2017-Jun-22 03:54N 52°58' E 004°47'0 0.0
2017-Jun-22 03:30N 52°58' E 004°47'0 0.0
2017-Jun-22 03:00N 52°58' E 004°47'0 0.0
2017-Jun-22 02:30N 52°58' E 004°47'0 0.0
2017-Jun-22 01:57N 52°58' E 004°47'0 0.0
2017-Jun-22 01:30N 52°58' E 004°47'0 0.0
2017-Jun-22 01:00N 52°58' E 004°47'0 0.0
2017-Jun-22 00:30N 52°58' E 004°47'0 0.0
2017-Jun-22 00:00N 52°58' E 004°47'0 0.0
2017-Jun-21 23:30N 52°58' E 004°47'0 0.0
2017-Jun-21 22:57N 52°58' E 004°47'0 0.0
2017-Jun-21 22:30N 52°58' E 004°47'0 0.0
2017-Jun-21 22:00N 52°58' E 004°47'0 0.0
2017-Jun-21 21:30N 52°58' E 004°47'0 0.0
2017-Jun-21 20:57N 52°58' E 004°47'0 0.0
2017-Jun-21 20:27N 52°58' E 004°47'0 0.0
2017-Jun-21 19:57N 52°58' E 004°47'0 0.0
2017-Jun-21 19:24N 52°58' E 004°47'0 0.0
2017-Jun-21 19:00N 52°58' E 004°47'0 0.0
2017-Jun-21 18:30N 52°58' E 004°47'0 0.0
2017-Jun-21 18:00N 52°58' E 004°47'0 0.0
2017-Jun-21 17:27N 52°58' E 004°47'0 0.0
2017-Jun-21 17:00N 52°58' E 004°47'0 0.0
2017-Jun-21 16:30N 52°58' E 004°47'0 0.0
2017-Jun-21 16:00N 52°58' E 004°47'0 0.0
2017-Jun-21 15:27N 52°58' E 004°47'0 0.0
2017-Jun-21 14:54N 52°58' E 004°47'0 0.0
2017-Jun-21 14:30N 52°58' E 004°47'0 0.0
2017-Jun-21 13:30N 52°58' E 004°47'0 0.0
2017-Jun-21 13:00N 52°58' E 004°47'0 0.0
2017-Jun-21 12:30N 52°58' E 004°47'0 0.0
2017-Jun-21 12:00N 52°58' E 004°47'0 0.0
2017-Jun-21 11:27N 52°58' E 004°47'0 0.0
2017-Jun-21 11:00N 52°58' E 004°47'0 0.0
2017-Jun-21 10:27N 52°58' E 004°47'0 0.0
2017-Jun-21 10:00N 52°58' E 004°47'0 0.0
2017-Jun-21 09:30N 52°58' E 004°47'0 0.0
2017-Jun-21 09:00N 52°58' E 004°47'0 0.0
2017-Jun-21 08:30N 52°58' E 004°47'0 0.0
2017-Jun-21 08:00N 52°58' E 004°47'0 0.0
2017-Jun-21 07:27N 52°58' E 004°47'0 0.0
2017-Jun-21 06:57N 52°58' E 004°47'0 0.0
2017-Jun-21 06:30N 52°58' E 004°47'0 0.0
2017-Jun-21 06:00N 52°58' E 004°47'0 0.0
2017-Jun-21 05:30N 52°58' E 004°47'0 0.0
2017-Jun-21 05:00N 52°58' E 004°47'0 0.0
2017-Jun-21 04:24N 52°58' E 004°47'0 0.0
2017-Jun-21 04:00N 52°58' E 004°47'0 0.0
2017-Jun-21 03:27N 52°58' E 004°47'0 0.0
2017-Jun-21 02:57N 52°58' E 004°47'0 0.0
2017-Jun-21 02:30N 52°58' E 004°47'0 0.0
2017-Jun-21 02:00N 52°58' E 004°47'0 0.0
2017-Jun-21 01:30N 52°58' E 004°47'0 0.0
2017-Jun-21 01:00N 52°58' E 004°47'0 0.0
2017-Jun-21 00:30N 52°58' E 004°47'0 0.0
2017-Jun-21 00:00N 52°58' E 004°47'0 0.0
2017-Jun-20 23:30N 52°58' E 004°47'0 0.0
2017-Jun-20 23:00N 52°58' E 004°47'0 0.0
2017-Jun-20 22:30N 52°58' E 004°47'0 0.0
2017-Jun-20 22:00N 52°58' E 004°47'0 0.0
2017-Jun-20 21:30N 52°58' E 004°47'0 0.0
2017-Jun-20 20:54N 52°58' E 004°47'0 0.0
2017-Jun-20 20:30N 52°58' E 004°47'0 0.0
2017-Jun-20 20:00N 52°58' E 004°47'0 0.0
2017-Jun-20 19:27N 52°58' E 004°47'0 0.0
2017-Jun-20 18:54N 52°58' E 004°47'0 0.0
2017-Jun-20 18:27N 52°58' E 004°47'0 0.0
2017-Jun-20 17:57N 52°58' E 004°47'0 0.0
2017-Jun-20 17:30N 52°58' E 004°47'0 0.0
2017-Jun-20 17:00N 52°58' E 004°47'0 0.0
2017-Jun-20 16:30N 52°58' E 004°47'0 0.0
2017-Jun-20 16:00N 52°58' E 004°47'0 0.0
2017-Jun-20 15:27N 52°58' E 004°47'0 0.0
2017-Jun-20 15:00N 52°58' E 004°47'0 0.0
2017-Jun-20 14:00N 52°58' E 004°47'0 0.0
2017-Jun-20 13:27N 52°58' E 004°47'0 0.0
2017-Jun-20 12:54N 52°58' E 004°47'0 0.0
2017-Jun-20 12:27N 52°58' E 004°47'0 0.0
2017-Jun-20 11:57N 52°58' E 004°47'0 0.0
2017-Jun-20 11:30N 52°58' E 004°47'0 0.0
2017-Jun-20 11:00N 52°58' E 004°47'0 0.0
2017-Jun-20 10:30N 52°58' E 004°47'0 0.0
2017-Jun-20 09:57N 52°58' E 004°47'0 0.0
2017-Jun-20 09:30N 52°58' E 004°47'0 0.0
2017-Jun-20 09:00N 52°58' E 004°47'0 0.0
2017-Jun-20 08:30N 52°58' E 004°47'0 0.0
2017-Jun-20 08:00N 52°58' E 004°47'0 0.0
2017-Jun-20 07:30N 52°58' E 004°47'0 0.0
2017-Jun-20 07:00N 52°58' E 004°47'0 0.0
2017-Jun-20 06:30N 52°58' E 004°47'0 0.0
2017-Jun-20 06:00N 52°58' E 004°47'0 0.0
2017-Jun-20 05:30N 52°58' E 004°47'0 0.0
2017-Jun-20 05:00N 52°58' E 004°47'0 0.0
2017-Jun-20 04:27N 52°58' E 004°47'0 0.0
2017-Jun-20 04:00N 52°58' E 004°47'0 0.0
2017-Jun-20 03:27N 52°58' E 004°47'0 0.0
2017-Jun-20 03:00N 52°58' E 004°47'0 0.0
2017-Jun-20 02:30N 52°58' E 004°47'0 0.0
2017-Jun-20 02:00N 52°58' E 004°47'0 0.0
2017-Jun-20 01:27N 52°58' E 004°47'0 0.0
2017-Jun-20 01:00N 52°58' E 004°47'0 0.0
2017-Jun-20 00:30N 52°58' E 004°47'0 0.0
2017-Jun-19 23:57N 52°58' E 004°47'0 0.0
2017-Jun-19 23:27N 52°58' E 004°47'0 0.0
2017-Jun-19 23:00N 52°58' E 004°47'0 0.0
2017-Jun-19 22:27N 52°58' E 004°47'0 0.0
2017-Jun-19 22:00N 52°58' E 004°47'0 0.0
2017-Jun-19 21:30N 52°58' E 004°47'0 0.0
2017-Jun-19 21:00N 52°58' E 004°47'0 0.0
2017-Jun-19 20:30N 52°58' E 004°47'0 0.0
2017-Jun-19 20:00N 52°58' E 004°47'0 0.0
2017-Jun-19 19:30N 52°58' E 004°47'0 0.0
2017-Jun-19 18:57N 52°58' E 004°47'0 0.0
2017-Jun-19 18:27N 52°58' E 004°47'0 0.0
2017-Jun-19 17:57N 52°58' E 004°47'0 0.0
2017-Jun-19 17:30N 52°58' E 004°47'0 0.0
2017-Jun-19 17:00N 52°58' E 004°47'0 0.0
2017-Jun-19 16:30N 52°58' E 004°47'0 0.0
2017-Jun-19 16:00N 52°58' E 004°47'0 0.0
2017-Jun-19 15:30N 52°58' E 004°47'0 0.0
2017-Jun-19 14:54N 52°58' E 004°47'0 0.0
2017-Jun-19 14:00N 52°58' E 004°47'0 0.0
2017-Jun-19 13:30N 52°58' E 004°47'0 0.0
2017-Jun-19 13:00N 52°58' E 004°47'0 0.0
2017-Jun-19 12:30N 52°58' E 004°47'0 0.0
2017-Jun-19 12:00N 52°58' E 004°47'0 0.0
2017-Jun-19 11:30N 52°58' E 004°47'0 0.0
2017-Jun-19 11:00N 52°58' E 004°47'0 0.0
2017-Jun-19 10:30N 52°58' E 004°47'0 0.0
2017-Jun-19 10:00N 52°58' E 004°47'0 0.0
2017-Jun-19 09:27N 52°58' E 004°47'0 0.0
2017-Jun-19 09:00N 52°58' E 004°47'0 0.0
2017-Jun-19 08:30N 52°58' E 004°47'0 0.0
2017-Jun-19 08:00N 52°58' E 004°47'0 0.0
2017-Jun-19 07:24N 52°58' E 004°47'0 0.0
2017-Jun-19 06:57N 52°58' E 004°47'0 0.0
2017-Jun-19 06:30N 52°58' E 004°47'0 0.0
2017-Jun-19 06:00N 52°58' E 004°47'0 0.0
2017-Jun-19 05:30N 52°58' E 004°47'0 0.0
2017-Jun-19 05:00N 52°58' E 004°47'0 0.0
2017-Jun-19 04:24N 52°58' E 004°47'0 0.0
2017-Jun-19 04:00N 52°58' E 004°47'0 0.0
2017-Jun-19 03:30N 52°58' E 004°47'0 0.0
2017-Jun-19 03:00N 52°58' E 004°47'0 0.0
2017-Jun-19 02:27N 52°58' E 004°47'0 0.0
2017-Jun-19 02:00N 52°58' E 004°47'0 0.0
2017-Jun-19 01:27N 52°58' E 004°47'0 0.0
2017-Jun-19 00:57N 52°58' E 004°47'0 0.0
2017-Jun-19 00:30N 52°58' E 004°47'0 0.0
2017-Jun-19 00:00N 52°58' E 004°47'0 0.0
2017-Jun-18 23:27N 52°58' E 004°47'0 0.0
2017-Jun-18 23:00N 52°58' E 004°47'0 0.0
2017-Jun-18 22:30N 52°58' E 004°47'0 0.0
2017-Jun-18 22:00N 52°58' E 004°47'0 0.0
2017-Jun-18 21:30N 52°58' E 004°47'0 0.0
2017-Jun-18 21:00N 52°58' E 004°47'0 0.0
2017-Jun-18 20:30N 52°58' E 004°47'0 0.0
2017-Jun-18 20:00N 52°58' E 004°47'0 0.0
2017-Jun-18 19:30N 52°58' E 004°47'0 0.0
2017-Jun-18 19:00N 52°58' E 004°47'0 0.0
2017-Jun-18 18:30N 52°58' E 004°47'0 0.0
2017-Jun-18 17:57N 52°58' E 004°47'0 0.0
2017-Jun-18 17:30N 52°58' E 004°47'0 0.0
2017-Jun-18 17:00N 52°58' E 004°47'0 0.0
2017-Jun-18 16:24N 52°58' E 004°47'0 0.0
2017-Jun-18 15:57N 52°58' E 004°47'0 0.0
2017-Jun-18 15:30N 52°58' E 004°47'0 0.0
2017-Jun-18 15:00N 52°58' E 004°47'0 0.0
2017-Jun-18 14:00N 52°58' E 004°47'0 0.0
2017-Jun-18 13:27N 52°58' E 004°47'0 0.0
2017-Jun-18 13:00N 52°58' E 004°47'0 0.0
2017-Jun-18 12:30N 52°58' E 004°47'0 0.0
2017-Jun-18 12:00N 52°58' E 004°47'0 0.0
2017-Jun-18 11:30N 52°58' E 004°47'0 0.0
2017-Jun-18 11:00N 52°58' E 004°47'0 0.0
2017-Jun-18 10:27N 52°58' E 004°47'0 0.0
2017-Jun-18 09:57N 52°58' E 004°47'0 0.0
2017-Jun-18 09:27N 52°58' E 004°47'0 0.0
2017-Jun-18 08:51N 52°58' E 004°47'0 0.0
2017-Jun-18 08:30N 52°58' E 004°47'0 0.0
2017-Jun-18 07:45N 52°58' E 004°47'0 0.0
2017-Jun-18 07:30N 52°58' E 004°47'0 0.0
2017-Jun-18 07:00N 52°58' E 004°47'0 0.0
2017-Jun-18 06:30N 52°58' E 004°47'0 0.0
2017-Jun-18 05:57N 52°58' E 004°47'0 0.0
2017-Jun-18 05:30N 52°58' E 004°47'0 0.0
2017-Jun-18 05:00N 52°58' E 004°47'0 0.0
2017-Jun-18 04:30N 52°58' E 004°47'0 0.0
2017-Jun-18 04:00N 52°58' E 004°47'0 0.0
2017-Jun-18 03:30N 52°58' E 004°47'0 0.0
2017-Jun-18 03:00N 52°58' E 004°47'0 0.0
2017-Jun-18 02:27N 52°58' E 004°47'0 0.0
2017-Jun-18 01:57N 52°58' E 004°47'0 0.0
2017-Jun-18 01:27N 52°58' E 004°47'0 0.0
2017-Jun-18 00:57N 52°58' E 004°47'0 0.0
2017-Jun-18 00:30N 52°58' E 004°47'0 0.0
2017-Jun-18 00:00N 52°58' E 004°47'0 0.0
2017-Jun-17 23:24N 52°58' E 004°47'0 0.0
2017-Jun-17 22:57N 52°58' E 004°47'0 0.0
2017-Jun-17 22:30N 52°58' E 004°47'0 0.0
2017-Jun-17 22:00N 52°58' E 004°47'0 0.0
2017-Jun-17 21:30N 52°58' E 004°47'0 0.0
2017-Jun-17 21:00N 52°58' E 004°47'0 0.0
2017-Jun-17 20:30N 52°58' E 004°47'0 0.0
2017-Jun-17 19:57N 52°58' E 004°47'0 0.0
2017-Jun-17 19:30N 52°58' E 004°47'0 0.0
2017-Jun-17 19:00N 52°58' E 004°47'0 0.0
2017-Jun-17 18:30N 52°58' E 004°47'0 0.0
2017-Jun-17 18:00N 52°58' E 004°47'0 0.0
2017-Jun-17 17:30N 52°58' E 004°47'0 0.0
2017-Jun-17 17:00N 52°58' E 004°47'0 0.0
2017-Jun-17 16:30N 52°58' E 004°47'0 0.0
2017-Jun-17 15:57N 52°58' E 004°47'0 0.0
2017-Jun-17 15:30N 52°58' E 004°47'0 0.0
2017-Jun-17 15:00N 52°58' E 004°47'0 0.0
2017-Jun-17 14:00N 52°58' E 004°47'0 0.0
2017-Jun-17 13:30N 52°58' E 004°47'0 0.0
2017-Jun-17 13:00N 52°58' E 004°47'0 0.0
2017-Jun-17 12:30N 52°58' E 004°47'0 0.0
2017-Jun-17 11:57N 52°58' E 004°47'0 0.0
2017-Jun-17 11:30N 52°58' E 004°47'0 0.0
2017-Jun-17 11:00N 52°58' E 004°47'0 0.0
2017-Jun-17 10:30N 52°58' E 004°47'0 0.0
2017-Jun-17 09:57N 52°58' E 004°47'0 0.0
2017-Jun-17 09:30N 52°58' E 004°47'0 0.0
2017-Jun-17 09:00N 52°58' E 004°47'0 0.0
2017-Jun-17 08:24N 52°58' E 004°47'0 0.0
2017-Jun-17 08:00N 52°58' E 004°47'0 0.4
2017-Jun-17 07:28N 52°58' E 004°47'2 3.1
2017-Jun-17 06:58N 52°59' E 004°46'0 0.1
2017-Jun-17 06:28N 52°59' E 004°46'0 0.1
2017-Jun-17 05:58N 52°59' E 004°46'0 0.0
2017-Jun-17 05:28N 52°59' E 004°46'0 0.0
2017-Jun-17 04:58N 52°59' E 004°46'0 0.0
2017-Jun-17 04:13N 52°59' E 004°46'0 0.0
2017-Jun-17 03:58N 52°59' E 004°46'0 0.0
2017-Jun-17 03:22N 52°59' E 004°46'0 0.0
2017-Jun-17 02:55N 52°59' E 004°46'0 0.0
2017-Jun-17 02:25N 52°59' E 004°46'0 0.0
2017-Jun-17 01:58N 52°59' E 004°46'0 0.0
2017-Jun-17 01:28N 52°59' E 004°46'0 0.1
2017-Jun-17 00:58N 52°59' E 004°46'0 0.2
2017-Jun-17 00:28N 52°59' E 004°46'0 0.0
2017-Jun-16 23:58N 52°59' E 004°46'0 0.0
2017-Jun-16 23:28N 52°59' E 004°46'0 0.0
2017-Jun-16 22:49N 52°59' E 004°46'0 0.0
2017-Jun-16 22:28N 52°59' E 004°46'0 0.0
2017-Jun-16 21:55N 52°59' E 004°46'0 0.0
2017-Jun-16 21:25N 52°59' E 004°46'0 0.0
2017-Jun-16 20:49N 52°59' E 004°46'0 0.0
2017-Jun-16 20:28N 52°59' E 004°46'0 0.0
2017-Jun-16 19:58N 52°59' E 004°46'0 0.0
2017-Jun-16 19:28N 52°59' E 004°46'0 0.1
2017-Jun-16 18:58N 52°59' E 004°46'0 0.2
2017-Jun-16 18:28N 52°59' E 004°46'0 0.0
2017-Jun-16 17:58N 52°59' E 004°46'0 0.0
2017-Jun-16 17:28N 52°59' E 004°46'0 0.0
2017-Jun-16 16:58N 52°59' E 004°46'0 0.0
2017-Jun-16 16:25N 52°59' E 004°46'0 0.0
2017-Jun-16 15:55N 52°59' E 004°46'0 0.0
2017-Jun-16 15:28N 52°59' E 004°46'0 0.0
2017-Jun-16 14:52N 52°59' E 004°46'0 0.0
2017-Jun-16 14:19N 52°59' E 004°46'4 5.3
2017-Jun-16 13:30N 52°56' E 004°41'4 8.4
2017-Jun-16 13:00N 52°53' E 004°37'4 8.5
2017-Jun-16 12:30N 52°50' E 004°32'36 9.8
2017-Jun-16 08:52N 52°29' E 003°43'511.7
2017-Jun-16 08:29N 52°26' E 003°38'611.9
2017-Jun-16 07:59N 52°22' E 003°31'6111.8
2017-Jun-16 02:47N 51°36' E 002°24'311.0
2017-Jun-16 02:28N 51°34' E 002°21'510.7
2017-Jun-16 01:59N 51°30' E 002°15'510.4
2017-Jun-16 01:30N 51°26' E 002°10'5 9.3
2017-Jun-16 01:01N 51°22' E 002°08'5 9.4
2017-Jun-16 00:30N 51°17' E 002°07'4 8.4
2017-Jun-16 00:00N 51°13' E 002°03'5 9.6
2017-Jun-15 23:30N 51°11' E 001°57'5 9.5
2017-Jun-15 23:00N 51°09' E 001°50'5 9.3
2017-Jun-15 22:30N 51°06' E 001°44'5 9.3
2017-Jun-15 22:00N 51°02' E 001°39'5 9.1
2017-Jun-15 21:30N 50°59' E 001°34'  
Track history (hours):
 
Tides and Currents Weather Stations Pressure Air Temp Water Temp Dewpoint Dewpoint Depression Visibility Wind Speed Wind Dir Waves Ship Positions

ARA Libertad (Argentina)

Last reported at 2017-Jun-25 21:04 UTC. Time now 2017-Jun-26 11:57 UTC.
Position N 53°35' E 005°31'.

Length 104 m; draft 6.7 m.

Type: Other ship. MMSI: 701000001.

Date/timePositionNaut miles runAvg speedWind from/ knotsBaromVisibWave heightAir tempDewpointWater temp
2017-Jun-25 21:04N 53°35' E 005°31'1 9.4
2017-Jun-25 20:59N 53°34' E 005°30'4 9.0
2017-Jun-25 20:30N 53°33' E 005°23'5 9.1
2017-Jun-25 20:00N 53°31' E 005°16'5 9.2
2017-Jun-25 19:30N 53°30' E 005°09'5 9.2
2017-Jun-25 19:00N 53°28' E 005°02'5 9.6
2017-Jun-25 18:30N 53°26' E 004°54'5 9.9
2017-Jun-25 18:00N 53°24' E 004°47'611.5
2017-Jun-25 17:26N 53°19' E 004°40'2411.7
2017-Jun-25 15:25N 52°56' E 004°28'3 7.9
2017-Jun-25 15:00N 52°54' E 004°32'6 5.8
2017-Jun-25 14:00N 52°56' E 004°41'3 5.9
2017-Jun-25 13:30N 52°58' E 004°45'3 5.1
2017-Jun-25 13:00N 52°60' E 004°48'1 2.2
2017-Jun-25 12:30N 52°59' E 004°48'1 2.3
2017-Jun-25 11:58N 52°58' E 004°47'0 0.4
2017-Jun-25 11:25N 52°57' E 004°47'0 0.0
2017-Jun-25 10:55N 52°57' E 004°47'0 0.0
2017-Jun-25 10:28N 52°57' E 004°47'0 0.0
2017-Jun-25 09:58N 52°57' E 004°47'0 0.0
2017-Jun-25 09:28N 52°57' E 004°47'0 0.0
2017-Jun-25 08:58N 52°57' E 004°47'0 0.0
2017-Jun-25 08:28N 52°57' E 004°47'0 0.0
2017-Jun-25 07:55N 52°57' E 004°47'0 0.0
2017-Jun-25 07:28N 52°57' E 004°47'0 0.0
2017-Jun-25 06:58N 52°57' E 004°47'0 0.0
2017-Jun-25 06:19N 52°57' E 004°47'0 0.0
2017-Jun-25 05:58N 52°57' E 004°47'0 0.0
2017-Jun-25 05:28N 52°57' E 004°47'0 0.0
2017-Jun-25 04:55N 52°57' E 004°47'0 0.0
2017-Jun-25 04:28N 52°57' E 004°47'0 0.0
2017-Jun-25 03:55N 52°57' E 004°47'0 0.0
2017-Jun-25 03:22N 52°57' E 004°47'0 0.0
2017-Jun-25 02:46N 52°57' E 004°47'0 0.0
2017-Jun-25 02:28N 52°57' E 004°47'0 0.0
2017-Jun-25 01:58N 52°57' E 004°47'0 0.0
2017-Jun-25 01:28N 52°57' E 004°47'0 0.0
2017-Jun-25 00:58N 52°57' E 004°47'0 0.0
2017-Jun-25 00:28N 52°57' E 004°47'0 0.0
2017-Jun-24 23:58N 52°57' E 004°47'0 0.0
2017-Jun-24 23:28N 52°57' E 004°47'0 0.0
2017-Jun-24 22:58N 52°57' E 004°47'0 0.0
2017-Jun-24 22:28N 52°57' E 004°47'0 0.0
2017-Jun-24 21:58N 52°57' E 004°47'0 0.0
2017-Jun-24 21:25N 52°57' E 004°47'0 0.0
2017-Jun-24 20:58N 52°57' E 004°47'0 0.0
2017-Jun-24 20:28N 52°57' E 004°47'0 0.0
2017-Jun-24 19:55N 52°57' E 004°47'0 0.0
2017-Jun-24 19:25N 52°57' E 004°47'0 0.0
2017-Jun-24 18:55N 52°57' E 004°47'0 0.0
2017-Jun-24 18:28N 52°57' E 004°47'0 0.0
2017-Jun-24 17:58N 52°57' E 004°47'0 0.0
2017-Jun-24 17:28N 52°57' E 004°47'0 0.0
2017-Jun-24 16:52N 52°57' E 004°47'0 0.0
2017-Jun-24 16:28N 52°57' E 004°47'0 0.0
2017-Jun-24 15:58N 52°57' E 004°47'0 0.0
2017-Jun-24 15:28N 52°57' E 004°47'0 0.0
2017-Jun-24 14:55N 52°57' E 004°47'0 0.0
2017-Jun-24 13:58N 52°57' E 004°47'0 0.0
2017-Jun-24 13:28N 52°57' E 004°47'0 0.0
2017-Jun-24 12:58N 52°57' E 004°47'0 0.0
2017-Jun-24 12:28N 52°57' E 004°47'0 0.0
2017-Jun-24 11:46N 52°57' E 004°47'0 0.0
2017-Jun-24 11:19N 52°57' E 004°47'0 0.0
2017-Jun-24 10:55N 52°57' E 004°47'0 0.0
2017-Jun-24 10:25N 52°57' E 004°47'0 0.0
2017-Jun-24 09:46N 52°57' E 004°47'0 0.0
2017-Jun-24 09:28N 52°57' E 004°47'0 0.0
2017-Jun-24 08:52N 52°57' E 004°47'0 0.0
2017-Jun-24 08:04N 52°57' E 004°47'0 0.0
2017-Jun-24 07:58N 52°57' E 004°47'0 0.0
2017-Jun-24 07:28N 52°57' E 004°47'0 0.0
2017-Jun-24 06:55N 52°57' E 004°47'0 0.0
2017-Jun-24 06:28N 52°57' E 004°47'0 0.0
2017-Jun-24 05:58N 52°57' E 004°47'0 0.0
2017-Jun-24 05:28N 52°57' E 004°47'0 0.0
2017-Jun-24 04:58N 52°57' E 004°47'0 0.0
2017-Jun-24 04:28N 52°57' E 004°47'0 0.0
2017-Jun-24 03:58N 52°57' E 004°47'0 0.0
2017-Jun-24 03:28N 52°57' E 004°47'0 0.0
2017-Jun-24 02:55N 52°57' E 004°47'0 0.0
2017-Jun-24 02:28N 52°57' E 004°47'0 0.0
2017-Jun-24 01:52N 52°57' E 004°47'0 0.0
2017-Jun-24 01:28N 52°57' E 004°47'0 0.0
2017-Jun-24 00:55N 52°57' E 004°47'0 0.0
2017-Jun-24 00:28N 52°57' E 004°47'0 0.0
2017-Jun-23 23:58N 52°57' E 004°47'0 0.0
2017-Jun-23 23:28N 52°57' E 004°47'0 0.0
2017-Jun-23 22:58N 52°57' E 004°47'0 0.0
2017-Jun-23 22:16N 52°57' E 004°47'0 0.0
2017-Jun-23 21:58N 52°57' E 004°47'0 0.0
2017-Jun-23 21:28N 52°57' E 004°47'0 0.0
2017-Jun-23 20:58N 52°57' E 004°47'0 0.0
2017-Jun-23 20:25N 52°57' E 004°47'0 0.0
2017-Jun-23 19:58N 52°57' E 004°47'0 0.0
2017-Jun-23 19:28N 52°57' E 004°47'0 0.0
2017-Jun-23 18:58N 52°57' E 004°47'0 0.0
2017-Jun-23 18:28N 52°57' E 004°47'0 0.0
2017-Jun-23 17:58N 52°57' E 004°47'0 0.0
2017-Jun-23 17:28N 52°57' E 004°47'0 0.0
2017-Jun-23 16:55N 52°57' E 004°47'0 0.0
2017-Jun-23 16:28N 52°57' E 004°47'0 0.0
2017-Jun-23 15:58N 52°57' E 004°47'0 0.0
2017-Jun-23 15:25N 52°57' E 004°47'0 0.0
2017-Jun-23 14:58N 52°57' E 004°47'0 0.0
2017-Jun-23 13:52N 52°57' E 004°47'0 0.0
2017-Jun-23 13:28N 52°57' E 004°47'0 0.0
2017-Jun-23 12:58N 52°57' E 004°47'0 0.0
2017-Jun-23 12:28N 52°57' E 004°47'0 0.0
2017-Jun-23 11:52N 52°57' E 004°47'0 0.0
2017-Jun-23 11:22N 52°57' E 004°47'0 0.0
2017-Jun-23 10:58N 52°57' E 004°47'0 0.0
2017-Jun-23 10:25N 52°57' E 004°47'0 0.0
2017-Jun-23 09:58N 52°57' E 004°47'0 0.0
2017-Jun-23 09:28N 52°57' E 004°47'0 0.0
2017-Jun-23 08:58N 52°57' E 004°47'0 0.0
2017-Jun-23 08:28N 52°57' E 004°47'0 0.0
2017-Jun-23 07:58N 52°57' E 004°47'0 0.0
2017-Jun-23 07:25N 52°57' E 004°47'0 0.0
2017-Jun-23 06:55N 52°57' E 004°47'0 0.0
2017-Jun-23 06:28N 52°57' E 004°47'0 0.0
2017-Jun-23 05:58N 52°57' E 004°47'0 0.0
2017-Jun-23 05:28N 52°57' E 004°47'0 0.0
2017-Jun-23 04:55N 52°57' E 004°47'0 0.0
2017-Jun-23 04:25N 52°57' E 004°47'0 0.0
2017-Jun-23 03:58N 52°57' E 004°47'0 0.0
2017-Jun-23 03:28N 52°57' E 004°47'0 0.0
2017-Jun-23 02:58N 52°57' E 004°47'0 0.0
2017-Jun-23 02:28N 52°57' E 004°47'0 0.0
2017-Jun-23 01:58N 52°57' E 004°47'0 0.0
2017-Jun-23 01:28N 52°57' E 004°47'0 0.0
2017-Jun-23 00:43N 52°57' E 004°47'0 0.0
2017-Jun-23 00:28N 52°57' E 004°47'0 0.0
2017-Jun-22 23:58N 52°57' E 004°47'0 0.0
2017-Jun-22 23:25N 52°57' E 004°47'0 0.0
2017-Jun-22 22:58N 52°57' E 004°47'0 0.0
2017-Jun-22 22:28N 52°57' E 004°47'0 0.0
2017-Jun-22 21:58N 52°57' E 004°47'0 0.0
2017-Jun-22 21:28N 52°57' E 004°47'0 0.0
2017-Jun-22 20:58N 52°57' E 004°47'0 0.0
2017-Jun-22 20:28N 52°57' E 004°47'0 0.0
2017-Jun-22 19:58N 52°57' E 004°47'0 0.0
2017-Jun-22 19:16N 52°57' E 004°47'0 0.0
2017-Jun-22 18:58N 52°57' E 004°47'0 0.0
2017-Jun-22 18:28N 52°57' E 004°47'0 0.0
2017-Jun-22 17:58N 52°57' E 004°47'0 0.0
2017-Jun-22 17:25N 52°57' E 004°47'0 0.0
2017-Jun-22 16:58N 52°57' E 004°47'0 0.0
2017-Jun-22 16:25N 52°57' E 004°47'0 0.0
2017-Jun-22 15:55N 52°57' E 004°47'0 0.0
2017-Jun-22 15:28N 52°57' E 004°47'0 0.0
2017-Jun-22 14:58N 52°57' E 004°47'0 0.0
2017-Jun-22 13:58N 52°57' E 004°47'0 0.0
2017-Jun-22 13:25N 52°57' E 004°47'0 0.4
2017-Jun-22 12:55N 52°58' E 004°47'2 3.9
2017-Jun-22 12:30N 52°59' E 004°48'4 7.8
2017-Jun-22 12:00N 53°02' E 004°52'0 0.3
2017-Jun-22 11:24N 53°02' E 004°52'0 0.1
2017-Jun-22 10:54N 53°02' E 004°52'0 0.0
2017-Jun-22 10:27N 53°02' E 004°52'0 0.1
2017-Jun-22 10:00N 53°02' E 004°52'0 0.1
2017-Jun-22 09:27N 53°02' E 004°52'0 0.0
2017-Jun-22 08:57N 53°02' E 004°52'0 0.0
2017-Jun-22 08:24N 53°02' E 004°52'0 0.1
2017-Jun-22 08:00N 53°02' E 004°52'0 0.1
2017-Jun-22 07:24N 53°02' E 004°52'0 0.0
2017-Jun-22 07:00N 53°02' E 004°52'3 5.2
2017-Jun-22 06:30N 53°00' E 004°49'3 5.6
2017-Jun-22 06:00N 52°58' E 004°47'0 0.0
2017-Jun-22 05:27N 52°58' E 004°47'0 0.0
2017-Jun-22 05:00N 52°58' E 004°47'0 0.0
2017-Jun-22 04:30N 52°58' E 004°47'0 0.0
2017-Jun-22 03:54N 52°58' E 004°47'0 0.0
2017-Jun-22 03:30N 52°58' E 004°47'0 0.0
2017-Jun-22 03:00N 52°58' E 004°47'0 0.0
2017-Jun-22 02:30N 52°58' E 004°47'0 0.0
2017-Jun-22 01:57N 52°58' E 004°47'0 0.0
2017-Jun-22 01:30N 52°58' E 004°47'0 0.0
2017-Jun-22 01:00N 52°58' E 004°47'0 0.0
2017-Jun-22 00:30N 52°58' E 004°47'0 0.0
2017-Jun-22 00:00N 52°58' E 004°47'0 0.0
2017-Jun-21 23:30N 52°58' E 004°47'0 0.0
2017-Jun-21 22:57N 52°58' E 004°47'0 0.0
2017-Jun-21 22:30N 52°58' E 004°47'0 0.0
2017-Jun-21 22:00N 52°58' E 004°47'0 0.0
2017-Jun-21 21:30N 52°58' E 004°47'0 0.0
2017-Jun-21 20:57N 52°58' E 004°47'0 0.0
2017-Jun-21 20:27N 52°58' E 004°47'0 0.0
2017-Jun-21 19:57N 52°58' E 004°47'0 0.0
2017-Jun-21 19:24N 52°58' E 004°47'0 0.0
2017-Jun-21 19:00N 52°58' E 004°47'0 0.0
2017-Jun-21 18:30N 52°58' E 004°47'0 0.0
2017-Jun-21 18:00N 52°58' E 004°47'0 0.0
2017-Jun-21 17:27N 52°58' E 004°47'0 0.0
2017-Jun-21 17:00N 52°58' E 004°47'0 0.0
2017-Jun-21 16:30N 52°58' E 004°47'0 0.0
2017-Jun-21 16:00N 52°58' E 004°47'0 0.0
2017-Jun-21 15:27N 52°58' E 004°47'0 0.0
2017-Jun-21 14:54N 52°58' E 004°47'0 0.0
2017-Jun-21 14:30N 52°58' E 004°47'0 0.0
2017-Jun-21 13:30N 52°58' E 004°47'0 0.0
2017-Jun-21 13:00N 52°58' E 004°47'0 0.0
2017-Jun-21 12:30N 52°58' E 004°47'0 0.0
2017-Jun-21 12:00N 52°58' E 004°47'0 0.0
2017-Jun-21 11:27N 52°58' E 004°47'0 0.0
2017-Jun-21 11:00N 52°58' E 004°47'0 0.0
2017-Jun-21 10:27N 52°58' E 004°47'0 0.0
2017-Jun-21 10:00N 52°58' E 004°47'0 0.0
2017-Jun-21 09:30N 52°58' E 004°47'0 0.0
2017-Jun-21 09:00N 52°58' E 004°47'0 0.0
2017-Jun-21 08:30N 52°58' E 004°47'0 0.0
2017-Jun-21 08:00N 52°58' E 004°47'0 0.0
2017-Jun-21 07:27N 52°58' E 004°47'0 0.0
2017-Jun-21 06:57N 52°58' E 004°47'0 0.0
2017-Jun-21 06:30N 52°58' E 004°47'0 0.0
2017-Jun-21 06:00N 52°58' E 004°47'0 0.0
2017-Jun-21 05:30N 52°58' E 004°47'0 0.0
2017-Jun-21 05:00N 52°58' E 004°47'0 0.0
2017-Jun-21 04:24N 52°58' E 004°47'0 0.0
2017-Jun-21 04:00N 52°58' E 004°47'0 0.0
2017-Jun-21 03:27N 52°58' E 004°47'0 0.0
2017-Jun-21 02:57N 52°58' E 004°47'0 0.0
2017-Jun-21 02:30N 52°58' E 004°47'0 0.0
2017-Jun-21 02:00N 52°58' E 004°47'0 0.0
2017-Jun-21 01:30N 52°58' E 004°47'0 0.0
2017-Jun-21 01:00N 52°58' E 004°47'0 0.0
2017-Jun-21 00:30N 52°58' E 004°47'0 0.0
2017-Jun-21 00:00N 52°58' E 004°47'0 0.0
2017-Jun-20 23:30N 52°58' E 004°47'0 0.0
2017-Jun-20 23:00N 52°58' E 004°47'0 0.0
2017-Jun-20 22:30N 52°58' E 004°47'0 0.0
2017-Jun-20 22:00N 52°58' E 004°47'0 0.0
2017-Jun-20 21:30N 52°58' E 004°47'0 0.0
2017-Jun-20 20:54N 52°58' E 004°47'0 0.0
2017-Jun-20 20:30N 52°58' E 004°47'0 0.0
2017-Jun-20 20:00N 52°58' E 004°47'0 0.0
2017-Jun-20 19:27N 52°58' E 004°47'0 0.0
2017-Jun-20 18:54N 52°58' E 004°47'0 0.0
2017-Jun-20 18:27N 52°58' E 004°47'0 0.0
2017-Jun-20 17:57N 52°58' E 004°47'0 0.0
2017-Jun-20 17:30N 52°58' E 004°47'0 0.0
2017-Jun-20 17:00N 52°58' E 004°47'0 0.0
2017-Jun-20 16:30N 52°58' E 004°47'0 0.0
2017-Jun-20 16:00N 52°58' E 004°47'0 0.0
2017-Jun-20 15:27N 52°58' E 004°47'0 0.0
2017-Jun-20 15:00N 52°58' E 004°47'0 0.0
2017-Jun-20 14:00N 52°58' E 004°47'0 0.0
2017-Jun-20 13:27N 52°58' E 004°47'0 0.0
2017-Jun-20 12:54N 52°58' E 004°47'0 0.0
2017-Jun-20 12:27N 52°58' E 004°47'0 0.0
2017-Jun-20 11:57N 52°58' E 004°47'0 0.0
2017-Jun-20 11:30N 52°58' E 004°47'0 0.0
2017-Jun-20 11:00N 52°58' E 004°47'0 0.0
2017-Jun-20 10:30N 52°58' E 004°47'0 0.0
2017-Jun-20 09:57N 52°58' E 004°47'0 0.0
2017-Jun-20 09:30N 52°58' E 004°47'0 0.0
2017-Jun-20 09:00N 52°58' E 004°47'0 0.0
2017-Jun-20 08:30N 52°58' E 004°47'0 0.0
2017-Jun-20 08:00N 52°58' E 004°47'0 0.0
2017-Jun-20 07:30N 52°58' E 004°47'0 0.0
2017-Jun-20 07:00N 52°58' E 004°47'0 0.0
2017-Jun-20 06:30N 52°58' E 004°47'0 0.0
2017-Jun-20 06:00N 52°58' E 004°47'0 0.0
2017-Jun-20 05:30N 52°58' E 004°47'0 0.0
2017-Jun-20 05:00N 52°58' E 004°47'0 0.0
2017-Jun-20 04:27N 52°58' E 004°47'0 0.0
2017-Jun-20 04:00N 52°58' E 004°47'0 0.0
2017-Jun-20 03:27N 52°58' E 004°47'0 0.0
2017-Jun-20 03:00N 52°58' E 004°47'0 0.0
2017-Jun-20 02:30N 52°58' E 004°47'0 0.0
2017-Jun-20 02:00N 52°58' E 004°47'0 0.0
2017-Jun-20 01:27N 52°58' E 004°47'0 0.0
2017-Jun-20 01:00N 52°58' E 004°47'0 0.0
2017-Jun-20 00:30N 52°58' E 004°47'0 0.0
2017-Jun-19 23:57N 52°58' E 004°47'0 0.0
2017-Jun-19 23:27N 52°58' E 004°47'0 0.0
2017-Jun-19 23:00N 52°58' E 004°47'0 0.0
2017-Jun-19 22:27N 52°58' E 004°47'0 0.0
2017-Jun-19 22:00N 52°58' E 004°47'0 0.0
2017-Jun-19 21:30N 52°58' E 004°47'0 0.0
2017-Jun-19 21:00N 52°58' E 004°47'0 0.0
2017-Jun-19 20:30N 52°58' E 004°47'0 0.0
2017-Jun-19 20:00N 52°58' E 004°47'0 0.0
2017-Jun-19 19:30N 52°58' E 004°47'0 0.0
2017-Jun-19 18:57N 52°58' E 004°47'0 0.0
2017-Jun-19 18:27N 52°58' E 004°47'0 0.0
2017-Jun-19 17:57N 52°58' E 004°47'0 0.0
2017-Jun-19 17:30N 52°58' E 004°47'0 0.0
2017-Jun-19 17:00N 52°58' E 004°47'0 0.0
2017-Jun-19 16:30N 52°58' E 004°47'0 0.0
2017-Jun-19 16:00N 52°58' E 004°47'0 0.0
2017-Jun-19 15:30N 52°58' E 004°47'0 0.0
2017-Jun-19 14:54N 52°58' E 004°47'0 0.0
2017-Jun-19 14:00N 52°58' E 004°47'0 0.0
2017-Jun-19 13:30N 52°58' E 004°47'0 0.0
2017-Jun-19 13:00N 52°58' E 004°47'0 0.0
2017-Jun-19 12:30N 52°58' E 004°47'0 0.0
2017-Jun-19 12:00N 52°58' E 004°47'0 0.0
2017-Jun-19 11:30N 52°58' E 004°47'0 0.0
2017-Jun-19 11:00N 52°58' E 004°47'0 0.0
2017-Jun-19 10:30N 52°58' E 004°47'0 0.0
2017-Jun-19 10:00N 52°58' E 004°47'0 0.0
2017-Jun-19 09:27N 52°58' E 004°47'0 0.0
2017-Jun-19 09:00N 52°58' E 004°47'0 0.0
2017-Jun-19 08:30N 52°58' E 004°47'0 0.0
2017-Jun-19 08:00N 52°58' E 004°47'0 0.0
2017-Jun-19 07:24N 52°58' E 004°47'0 0.0
2017-Jun-19 06:57N 52°58' E 004°47'0 0.0
2017-Jun-19 06:30N 52°58' E 004°47'0 0.0
2017-Jun-19 06:00N 52°58' E 004°47'0 0.0
2017-Jun-19 05:30N 52°58' E 004°47'0 0.0
2017-Jun-19 05:00N 52°58' E 004°47'0 0.0
2017-Jun-19 04:24N 52°58' E 004°47'0 0.0
2017-Jun-19 04:00N 52°58' E 004°47'0 0.0
2017-Jun-19 03:30N 52°58' E 004°47'0 0.0
2017-Jun-19 03:00N 52°58' E 004°47'0 0.0
2017-Jun-19 02:27N 52°58' E 004°47'0 0.0
2017-Jun-19 02:00N 52°58' E 004°47'0 0.0
2017-Jun-19 01:27N 52°58' E 004°47'0 0.0
2017-Jun-19 00:57N 52°58' E 004°47'0 0.0
2017-Jun-19 00:30N 52°58' E 004°47'0 0.0
2017-Jun-19 00:00N 52°58' E 004°47'0 0.0
2017-Jun-18 23:27N 52°58' E 004°47'0 0.0
2017-Jun-18 23:00N 52°58' E 004°47'0 0.0
2017-Jun-18 22:30N 52°58' E 004°47'0 0.0
2017-Jun-18 22:00N 52°58' E 004°47'0 0.0
2017-Jun-18 21:30N 52°58' E 004°47'0 0.0
2017-Jun-18 21:00N 52°58' E 004°47'0 0.0
2017-Jun-18 20:30N 52°58' E 004°47'0 0.0
2017-Jun-18 20:00N 52°58' E 004°47'0 0.0
2017-Jun-18 19:30N 52°58' E 004°47'0 0.0
2017-Jun-18 19:00N 52°58' E 004°47'0 0.0
2017-Jun-18 18:30N 52°58' E 004°47'0 0.0
2017-Jun-18 17:57N 52°58' E 004°47'0 0.0
2017-Jun-18 17:30N 52°58' E 004°47'0 0.0
2017-Jun-18 17:00N 52°58' E 004°47'0 0.0
2017-Jun-18 16:24N 52°58' E 004°47'0 0.0
2017-Jun-18 15:57N 52°58' E 004°47'0 0.0
2017-Jun-18 15:30N 52°58' E 004°47'0 0.0
2017-Jun-18 15:00N 52°58' E 004°47'0 0.0
2017-Jun-18 14:00N 52°58' E 004°47'0 0.0
2017-Jun-18 13:27N 52°58' E 004°47'0 0.0
2017-Jun-18 13:00N 52°58' E 004°47'0 0.0
2017-Jun-18 12:30N 52°58' E 004°47'0 0.0
2017-Jun-18 12:00N 52°58' E 004°47'0 0.0
2017-Jun-18 11:30N 52°58' E 004°47'0 0.0
2017-Jun-18 11:00N 52°58' E 004°47'0 0.0
2017-Jun-18 10:27N 52°58' E 004°47'0 0.0
2017-Jun-18 09:57N 52°58' E 004°47'0 0.0
2017-Jun-18 09:27N 52°58' E 004°47'0 0.0
2017-Jun-18 08:51N 52°58' E 004°47'0 0.0
2017-Jun-18 08:30N 52°58' E 004°47'0 0.0
2017-Jun-18 07:45N 52°58' E 004°47'0 0.0
2017-Jun-18 07:30N 52°58' E 004°47'0 0.0
2017-Jun-18 07:00N 52°58' E 004°47'0 0.0
2017-Jun-18 06:30N 52°58' E 004°47'0 0.0
2017-Jun-18 05:57N 52°58' E 004°47'0 0.0
2017-Jun-18 05:30N 52°58' E 004°47'0 0.0
2017-Jun-18 05:00N 52°58' E 004°47'0 0.0
2017-Jun-18 04:30N 52°58' E 004°47'0 0.0
2017-Jun-18 04:00N 52°58' E 004°47'0 0.0
2017-Jun-18 03:30N 52°58' E 004°47'0 0.0
2017-Jun-18 03:00N 52°58' E 004°47'0 0.0
2017-Jun-18 02:27N 52°58' E 004°47'0 0.0
2017-Jun-18 01:57N 52°58' E 004°47'0 0.0
2017-Jun-18 01:27N 52°58' E 004°47'0 0.0
2017-Jun-18 00:57N 52°58' E 004°47'0 0.0
2017-Jun-18 00:30N 52°58' E 004°47'0 0.0
2017-Jun-18 00:00N 52°58' E 004°47'0 0.0
2017-Jun-17 23:24N 52°58' E 004°47'0 0.0
2017-Jun-17 22:57N 52°58' E 004°47'0 0.0
2017-Jun-17 22:30N 52°58' E 004°47'0 0.0
2017-Jun-17 22:00N 52°58' E 004°47'0 0.0
2017-Jun-17 21:30N 52°58' E 004°47'0 0.0
2017-Jun-17 21:00N 52°58' E 004°47'0 0.0
2017-Jun-17 20:30N 52°58' E 004°47'0 0.0
2017-Jun-17 19:57N 52°58' E 004°47'0 0.0
2017-Jun-17 19:30N 52°58' E 004°47'0 0.0
2017-Jun-17 19:00N 52°58' E 004°47'0 0.0
2017-Jun-17 18:30N 52°58' E 004°47'0 0.0
2017-Jun-17 18:00N 52°58' E 004°47'0 0.0
2017-Jun-17 17:30N 52°58' E 004°47'0 0.0
2017-Jun-17 17:00N 52°58' E 004°47'0 0.0
2017-Jun-17 16:30N 52°58' E 004°47'0 0.0
2017-Jun-17 15:57N 52°58' E 004°47'0 0.0
2017-Jun-17 15:30N 52°58' E 004°47'0 0.0
2017-Jun-17 15:00N 52°58' E 004°47'0 0.0
2017-Jun-17 14:00N 52°58' E 004°47'0 0.0
2017-Jun-17 13:30N 52°58' E 004°47'0 0.0
2017-Jun-17 13:00N 52°58' E 004°47'0 0.0
2017-Jun-17 12:30N 52°58' E 004°47'0 0.0
2017-Jun-17 11:57N 52°58' E 004°47'0 0.0
2017-Jun-17 11:30N 52°58' E 004°47'0 0.0
2017-Jun-17 11:00N 52°58' E 004°47'0 0.0
2017-Jun-17 10:30N 52°58' E 004°47'0 0.0
2017-Jun-17 09:57N 52°58' E 004°47'0 0.0
2017-Jun-17 09:30N 52°58' E 004°47'0 0.0
2017-Jun-17 09:00N 52°58' E 004°47'0 0.0
2017-Jun-17 08:24N 52°58' E 004°47'0 0.0
2017-Jun-17 08:00N 52°58' E 004°47'0 0.4
2017-Jun-17 07:28N 52°58' E 004°47'2 3.1
2017-Jun-17 06:58N 52°59' E 004°46'0 0.1
2017-Jun-17 06:28N 52°59' E 004°46'0 0.1
2017-Jun-17 05:58N 52°59' E 004°46'0 0.0
2017-Jun-17 05:28N 52°59' E 004°46'0 0.0
2017-Jun-17 04:58N 52°59' E 004°46'0 0.0
2017-Jun-17 04:13N 52°59' E 004°46'0 0.0
2017-Jun-17 03:58N 52°59' E 004°46'0 0.0
2017-Jun-17 03:22N 52°59' E 004°46'0 0.0
2017-Jun-17 02:55N 52°59' E 004°46'0 0.0
2017-Jun-17 02:25N 52°59' E 004°46'0 0.0
2017-Jun-17 01:58N 52°59' E 004°46'0 0.0
2017-Jun-17 01:28N 52°59' E 004°46'0 0.1
2017-Jun-17 00:58N 52°59' E 004°46'0 0.2
2017-Jun-17 00:28N 52°59' E 004°46'0 0.0
2017-Jun-16 23:58N 52°59' E 004°46'0 0.0
2017-Jun-16 23:28N 52°59' E 004°46'0 0.0
2017-Jun-16 22:49N 52°59' E 004°46'0 0.0
2017-Jun-16 22:28N 52°59' E 004°46'0 0.0
2017-Jun-16 21:55N 52°59' E 004°46'0 0.0
2017-Jun-16 21:25N 52°59' E 004°46'0 0.0
2017-Jun-16 20:49N 52°59' E 004°46'0 0.0
2017-Jun-16 20:28N 52°59' E 004°46'0 0.0
2017-Jun-16 19:58N 52°59' E 004°46'0 0.0
2017-Jun-16 19:28N 52°59' E 004°46'0 0.1
2017-Jun-16 18:58N 52°59' E 004°46'0 0.2
2017-Jun-16 18:28N 52°59' E 004°46'0 0.0
2017-Jun-16 17:58N 52°59' E 004°46'0 0.0
2017-Jun-16 17:28N 52°59' E 004°46'0 0.0
2017-Jun-16 16:58N 52°59' E 004°46'0 0.0
2017-Jun-16 16:25N 52°59' E 004°46'0 0.0
2017-Jun-16 15:55N 52°59' E 004°46'0 0.0
2017-Jun-16 15:28N 52°59' E 004°46'0 0.0
2017-Jun-16 14:52N 52°59' E 004°46'0 0.0
2017-Jun-16 14:19N 52°59' E 004°46'4 5.3
2017-Jun-16 13:30N 52°56' E 004°41'4 8.4
2017-Jun-16 13:00N 52°53' E 004°37'4 8.5
2017-Jun-16 12:30N 52°50' E 004°32'36 9.8
2017-Jun-16 08:52N 52°29' E 003°43'511.7
2017-Jun-16 08:29N 52°26' E 003°38'611.9
2017-Jun-16 07:59N 52°22' E 003°31'6111.8
2017-Jun-16 02:47N 51°36' E 002°24'311.0
2017-Jun-16 02:28N 51°34' E 002°21'510.7
2017-Jun-16 01:59N 51°30' E 002°15'510.4
2017-Jun-16 01:30N 51°26' E 002°10'5 9.3
2017-Jun-16 01:01N 51°22' E 002°08'5 9.4
2017-Jun-16 00:30N 51°17' E 002°07'4 8.4
2017-Jun-16 00:00N 51°13' E 002°03'5 9.6
2017-Jun-15 23:30N 51°11' E 001°57'5 9.5
2017-Jun-15 23:00N 51°09' E 001°50'5 9.3
2017-Jun-15 22:30N 51°06' E 001°44'5 9.3
2017-Jun-15 22:00N 51°02' E 001°39'5 9.1
2017-Jun-15 21:30N 50°59' E 001°34'  

Dump ship's entire track history